Time;durP1;ratioP1;P1;durP2;ratioP2;P2;SDS_P1;SDS_P2;PMS_P1;PMS_P2;Temp;Humidity;BMP_temperature;BMP_pressure;BME280_temperature;BME280_humidity;BME280_pressure;Samples;Min_cycle;Max_cycle;Signal;HPM_P1;HPM_P2
2024/01/09 06:15:48;;;;;;;;;10.00;10.00;;;;;;;;5934165;22;11485;-78
2024/01/09 06:18:13;;;;;;;;;6.00;5.00;;;;;;;;5011567;28;11406;-81
2024/01/09 06:20:39;;;;;;;;;12.00;10.00;;;;;;;;4987114;28;8931;-76
2024/01/09 06:23:04;;;;;;;;;5.00;4.25;;;;;;;;5008011;28;8784;-82
2024/01/09 06:25:29;;;;;;;;;4.75;4.00;;;;;;;;4978229;28;8844;-78
2024/01/09 06:27:55;;;;;;;;;4.75;4.75;;;;;;;;4995200;28;8825;-82
2024/01/09 06:30:20;;;;;;;;;5.00;5.00;;;;;;;;4994875;28;8937;-78
2024/01/09 06:32:45;;;;;;;;;6.00;4.00;;;;;;;;4994845;28;8795;-77
2024/01/09 06:35:10;;;;;;;;;2.75;2.75;;;;;;;;4994601;28;8795;-79
2024/01/09 06:37:36;;;;;;;;;5.00;5.00;;;;;;;;4977252;28;8913;-81
2024/01/09 06:40:01;;;;;;;;;8.50;6.00;;;;;;;;4977029;28;8821;-75
2024/01/09 06:42:26;;;;;;;;;4.00;4.00;;;;;;;;4994783;28;8798;-76
2024/01/09 06:44:52;;;;;;;;;6.50;6.50;;;;;;;;4994674;28;8806;-76
2024/01/09 06:47:17;;;;;;;;;2.00;2.00;;;;;;;;4994576;28;8786;-79
2024/01/09 06:49:42;;;;;;;;;5.00;5.00;;;;;;;;5008286;28;8804;-81
2024/01/09 06:52:07;;;;;;;;;4.75;4.25;;;;;;;;5014252;28;8820;-80
2024/01/09 06:54:33;;;;;;;;;5.00;3.00;;;;;;;;5013988;28;9828;-78
2024/01/09 06:56:58;;;;;;;;;8.25;8.00;;;;;;;;4994974;28;8889;-80
2024/01/09 06:59:24;;;;;;;;;6.50;4.25;;;;;;;;5012558;28;8784;-79
2024/01/09 07:01:49;;;;;;;;;4.50;4.50;;;;;;;;5013865;28;9624;-75
2024/01/09 07:04:15;;;;;;;;;4.50;4.50;;;;;;;;5013418;28;8792;-74
2024/01/09 07:06:40;;;;;;;;;7.50;6.00;;;;;;;;4996238;28;8832;-75
2024/01/09 07:09:05;;;;;;;;;5.50;5.50;;;;;;;;5013720;28;8963;-76
2024/01/09 07:11:31;;;;;;;;;4.00;4.00;;;;;;;;5013683;28;8824;-75
2024/01/09 07:13:56;;;;;;;;;4.75;0.00;;;;;;;;5013634;28;8797;-75
2024/01/09 07:16:21;;;;;;;;;4.00;4.00;;;;;;;;5014596;28;8788;-75
2024/01/09 07:18:47;;;;;;;;;8.00;4.00;;;;;;;;5015433;28;8804;-77
2024/01/09 07:21:12;;;;;;;;;6.25;4.75;;;;;;;;5013576;28;8831;-79
2024/01/09 07:23:37;;;;;;;;;5.50;3.50;;;;;;;;5012982;28;8795;-77
2024/01/09 07:26:02;;;;;;;;;5.75;5.75;;;;;;;;5013458;28;8788;-79
2024/01/09 07:28:28;;;;;;;;;3.50;3.50;;;;;;;;5013467;28;9564;-77
2024/01/09 07:30:56;;;;;;;;;7.00;4.00;;;;;;;;4995764;28;9558;-79
2024/01/09 07:33:21;;;;;;;;;6.50;5.25;;;;;;;;5013283;28;8938;-73
2024/01/09 07:35:46;;;;;;;;;6.00;4.00;;;;;;;;5013248;28;12128;-77
2024/01/09 07:38:12;;;;;;;;;4.00;4.00;;;;;;;;4995186;28;8804;-72
2024/01/09 07:40:37;;;;;;;;;3.00;3.00;;;;;;;;5012685;28;8913;-73
2024/01/09 07:43:02;;;;;;;;;3.75;3.50;;;;;;;;5012744;28;8859;-75
2024/01/09 07:45:30;;;;;;;;;4.75;4.75;;;;;;;;5013075;28;8792;-73
2024/01/09 07:47:55;;;;;;;;;7.00;5.00;;;;;;;;5014153;28;8789;-73
2024/01/09 07:50:21;;;;;;;;;7.75;5.00;;;;;;;;5014174;28;10222;-73
2024/01/09 07:52:47;;;;;;;;;5.50;5.50;;;;;;;;5012885;28;8793;-77
2024/01/09 07:55:12;;;;;;;;;7.50;4.00;;;;;;;;5012912;28;8891;-72
2024/01/09 07:57:37;;;;;;;;;4.50;4.00;;;;;;;;5013046;28;8827;-77
2024/01/09 08:00:04;;;;;;;;;4.00;4.00;;;;;;;;4995320;28;8919;-77
2024/01/09 08:02:29;;;;;;;;;4.00;4.00;;;;;;;;4995145;28;8785;-75
2024/01/09 08:04:55;;;;;;;;;6.25;6.00;;;;;;;;4994892;28;11022;-75
2024/01/09 08:07:20;;;;;;;;;5.50;4.00;;;;;;;;5012178;28;9536;-82
2024/01/09 08:09:46;;;;;;;;;7.50;4.75;;;;;;;;5001396;28;8956;-78
2024/01/09 08:12:11;;;;;;;;;5.00;5.00;;;;;;;;4975468;28;8838;-77
2024/01/09 08:14:37;;;;;;;;;5.25;5.25;;;;;;;;4992861;28;11427;-81
2024/01/09 08:17:02;;;;;;;;;5.00;5.00;;;;;;;;4975779;28;8838;-79
2024/01/09 08:19:28;;;;;;;;;3.50;3.00;;;;;;;;4986700;28;8801;-77
2024/01/09 08:21:53;;;;;;;;;4.50;4.50;;;;;;;;4994597;28;9565;-77
2024/01/09 08:24:19;;;;;;;;;6.25;4.00;;;;;;;;5012064;28;9587;-81
2024/01/09 08:26:48;;;;;;;;;5.00;5.00;;;;;;;;5012113;28;8811;-77
2024/01/09 08:29:13;;;;;;;;;3.25;3.25;;;;;;;;5012195;28;8873;-79
2024/01/09 08:31:45;;;;;;;;;5.75;5.00;;;;;;;;5011981;28;11446;-77
2024/01/09 08:34:10;;;;;;;;;3.00;3.00;;;;;;;;4993850;28;9546;-79
2024/01/09 08:36:35;;;;;;;;;3.00;3.00;;;;;;;;5011750;28;11421;-79
2024/01/09 18:45:35;;;;;;;;;8.00;8.00;;;;;;;;5105231;27;13433;-72
2024/01/09 18:48:02;;;;;;;;;11.33;11.33;;;;;;;;5087728;28;11571;-72
2024/01/09 18:50:29;;;;;;;;;13.00;10.50;;;;;;;;5087442;28;11591;-75
2024/01/09 18:52:55;;;;;;;;;13.50;12.25;;;;;;;;5085976;28;11526;-76
2024/01/09 18:55:20;;;;;;;;;16.25;12.25;;;;;;;;5085234;28;11605;-74
2024/01/09 18:57:46;;;;;;;;;9.75;9.50;;;;;;;;5088200;28;8790;-73
2024/01/09 19:00:11;;;;;;;;;11.50;11.50;;;;;;;;5087732;28;8798;-77
2024/01/09 19:02:37;;;;;;;;;12.00;10.00;;;;;;;;5087672;28;8826;-79
2024/01/09 19:05:06;;;;;;;;;14.50;11.50;;;;;;;;5087838;28;8824;-78
2024/01/09 19:07:31;;;;;;;;;11.75;11.75;;;;;;;;5086596;28;9637;-80
2024/01/09 19:09:56;;;;;;;;;13.50;12.25;;;;;;;;5086542;28;11596;-77
2024/01/09 19:12:22;;;;;;;;;11.00;9.50;;;;;;;;5086660;28;8809;-77
2024/01/09 19:14:47;;;;;;;;;16.25;13.75;;;;;;;;5089501;28;8795;-76
2024/01/09 19:17:13;;;;;;;;;12.75;12.25;;;;;;;;5087632;28;8813;-76
2024/01/09 19:19:38;;;;;;;;;13.75;11.25;;;;;;;;5087523;28;8825;-73
2024/01/09 19:22:03;;;;;;;;;10.50;9.00;;;;;;;;5087622;28;8798;-74
2024/01/09 19:24:29;;;;;;;;;15.00;10.00;;;;;;;;5087299;28;8802;-75
2024/01/09 19:26:54;;;;;;;;;15.75;11.00;;;;;;;;5083991;28;9587;-76
2024/01/09 19:29:21;;;;;;;;;13.25;12.25;;;;;;;;5087553;28;8790;-76
2024/01/09 19:31:46;;;;;;;;;11.50;10.00;;;;;;;;5087182;28;8786;-76
2024/01/09 19:34:12;;;;;;;;;11.50;10.25;;;;;;;;5086865;28;11487;-73
2024/01/09 19:36:37;;;;;;;;;14.75;9.75;;;;;;;;5086942;28;8802;-75
2024/01/09 19:39:03;;;;;;;;;13.00;10.25;;;;;;;;5086935;28;8889;-75
2024/01/09 19:41:28;;;;;;;;;10.25;9.50;;;;;;;;5085055;28;8920;-75
2024/01/09 19:43:54;;;;;;;;;9.50;9.25;;;;;;;;5084662;28;8952;-77
2024/01/09 19:46:19;;;;;;;;;15.00;12.25;;;;;;;;5086724;28;8829;-77
2024/01/09 19:48:44;;;;;;;;;13.75;11.00;;;;;;;;5087222;28;8799;-78
2024/01/09 19:51:10;;;;;;;;;13.50;10.75;;;;;;;;5086783;28;8770;-78
2024/01/09 19:53:35;;;;;;;;;14.75;10.25;;;;;;;;5086655;28;8821;-76
2024/01/09 19:56:03;;;;;;;;;9.00;8.25;;;;;;;;5072832;28;8845;-77
2024/01/09 19:58:29;;;;;;;;;16.00;12.50;;;;;;;;5072652;28;8783;-78
2024/01/09 20:00:54;;;;;;;;;15.75;13.00;;;;;;;;5071049;28;10984;-78
2024/01/09 20:03:20;;;;;;;;;18.50;10.25;;;;;;;;5071910;28;8794;-76
2024/01/09 20:05:45;;;;;;;;;11.75;11.00;;;;;;;;5073659;28;8814;-78
2024/01/09 20:08:10;;;;;;;;;10.00;9.50;;;;;;;;5069169;28;8827;-78
2024/01/09 20:10:36;;;;;;;;;13.75;13.25;;;;;;;;5072832;28;9646;-77
2024/01/09 20:13:03;;;;;;;;;13.00;13.00;;;;;;;;5072992;28;8786;-78
2024/01/09 20:15:28;;;;;;;;;16.00;10.50;;;;;;;;5073011;28;8791;-77
2024/01/09 20:17:54;;;;;;;;;13.50;9.50;;;;;;;;5071958;28;11617;-77
2024/01/09 20:20:19;;;;;;;;;12.50;11.00;;;;;;;;5072577;28;8901;-78
2024/01/09 20:22:44;;;;;;;;;9.00;9.00;;;;;;;;5072780;28;8998;-76
2024/01/09 20:25:11;;;;;;;;;9.25;7.50;;;;;;;;5072447;28;8822;-77
2024/01/09 20:27:36;;;;;;;;;9.75;8.50;;;;;;;;5072629;28;9576;-77
2024/01/09 20:30:02;;;;;;;;;10.25;10.25;;;;;;;;5072582;28;11449;-77
2024/01/09 20:32:28;;;;;;;;;10.75;10.00;;;;;;;;5071287;28;8807;-76
2024/01/09 20:34:54;;;;;;;;;11.00;10.00;;;;;;;;5074697;28;8802;-77
2024/01/09 20:37:19;;;;;;;;;11.50;11.00;;;;;;;;5074532;28;11471;-78
2024/01/09 20:39:45;;;;;;;;;12.50;9.75;;;;;;;;5072668;28;8833;-83
2024/01/09 20:42:10;;;;;;;;;11.50;9.00;;;;;;;;5072523;28;8811;-77
2024/01/09 20:44:38;;;;;;;;;14.25;12.50;;;;;;;;5072029;28;10928;-77
2024/01/09 20:47:03;;;;;;;;;12.50;10.00;;;;;;;;5072423;28;8799;-77
2024/01/09 20:49:28;;;;;;;;;10.50;10.00;;;;;;;;5071916;28;11571;-79
2024/01/09 20:51:54;;;;;;;;;13.00;10.50;;;;;;;;5071136;28;8811;-83
2024/01/09 20:54:21;;;;;;;;;7.00;5.25;;;;;;;;5072384;28;8824;-74
2024/01/09 20:56:48;;;;;;;;;9.25;6.75;;;;;;;;5071874;28;11467;-74
2024/01/09 20:59:14;;;;;;;;;8.50;7.00;;;;;;;;5071985;28;11563;-74
2024/01/09 21:01:40;;;;;;;;;6.00;6.00;;;;;;;;5071957;28;11443;-81
2024/01/09 21:04:07;;;;;;;;;12.00;6.75;;;;;;;;5071781;28;12177;-78
2024/01/09 21:06:33;;;;;;;;;9.50;8.25;;;;;;;;5073375;28;8798;-81
2024/01/09 21:08:58;;;;;;;;;8.00;8.00;;;;;;;;5101504;28;11512;-84
2024/01/09 21:11:24;;;;;;;;;7.00;7.00;;;;;;;;5067227;28;8790;-86
2024/01/09 21:13:49;;;;;;;;;7.00;5.00;;;;;;;;5072778;28;8795;-84
2024/01/09 21:16:14;;;;;;;;;8.00;8.00;;;;;;;;5073390;28;8795;-83
2024/01/09 21:18:39;;;;;;;;;8.00;6.50;;;;;;;;5072616;28;8841;-86
2024/01/09 21:21:05;;;;;;;;;10.75;9.00;;;;;;;;5070892;28;8900;-84
2024/01/09 21:23:30;;;;;;;;;9.50;7.00;;;;;;;;5072475;28;8826;-85
2024/01/09 21:25:55;;;;;;;;;6.00;6.00;;;;;;;;5071694;28;8822;-85
2024/01/09 21:28:21;;;;;;;;;8.50;7.25;;;;;;;;5071449;28;8818;-85
2024/01/09 21:30:46;;;;;;;;;8.00;8.00;;;;;;;;5071390;28;8782;-83
2024/01/09 21:33:13;;;;;;;;;10.25;6.75;;;;;;;;5071301;28;8855;-84
2024/01/09 21:35:38;;;;;;;;;11.25;7.50;;;;;;;;5068405;28;8848;-83
2024/01/09 21:38:04;;;;;;;;;5.75;5.75;;;;;;;;5072591;28;11442;-84
2024/01/09 21:40:29;;;;;;;;;5.00;5.00;;;;;;;;5074503;28;8802;-84
2024/01/09 21:42:54;;;;;;;;;9.25;9.25;;;;;;;;5072961;28;8818;-84
2024/01/09 21:45:20;;;;;;;;;5.25;3.00;;;;;;;;5070260;28;8923;-83
2024/01/09 21:47:46;;;;;;;;;11.50;8.00;;;;;;;;5071640;28;8799;-82
2024/01/09 21:50:11;;;;;;;;;10.75;7.75;;;;;;;;5071242;28;11506;-84
2024/01/09 21:52:37;;;;;;;;;6.50;5.00;;;;;;;;5058686;28;8800;-82
2024/01/09 21:55:02;;;;;;;;;11.50;5.00;;;;;;;;5070200;28;8825;-80
2024/01/09 21:57:28;;;;;;;;;8.00;5.00;;;;;;;;5070584;28;8812;-78
2024/01/09 21:59:53;;;;;;;;;12.00;7.25;;;;;;;;5070390;28;8841;-80
2024/01/09 22:02:21;;;;;;;;;6.50;6.50;;;;;;;;5070609;28;8884;-78
2024/01/09 22:04:47;;;;;;;;;7.25;5.50;;;;;;;;5070021;28;8826;-77
2024/01/09 22:07:12;;;;;;;;;9.00;7.00;;;;;;;;5068955;28;12210;-78
2024/01/09 22:09:37;;;;;;;;;9.50;7.00;;;;;;;;5071725;28;8791;-80
2024/01/09 22:12:03;;;;;;;;;5.00;5.00;;;;;;;;5070805;28;8887;-78
2024/01/09 22:14:28;;;;;;;;;9.50;9.50;;;;;;;;5070289;28;8834;-78
2024/01/09 22:16:54;;;;;;;;;8.00;8.00;;;;;;;;5071052;28;8775;-78
2024/01/09 22:19:19;;;;;;;;;8.50;7.00;;;;;;;;5071296;28;8783;-78
2024/01/09 22:21:45;;;;;;;;;9.75;7.25;;;;;;;;5072002;28;8984;-78
2024/01/09 22:24:10;;;;;;;;;9.00;6.75;;;;;;;;5070672;28;8826;-79
2024/01/09 22:26:36;;;;;;;;;6.50;6.50;;;;;;;;5071595;28;8849;-78
2024/01/09 22:29:01;;;;;;;;;7.33;7.33;;;;;;;;5070709;28;8798;-77
2024/01/09 22:31:26;;;;;;;;;10.25;6.25;;;;;;;;5071068;28;8821;-79
2024/01/09 22:33:52;;;;;;;;;13.25;7.25;;;;;;;;5070733;28;8795;-78
2024/01/09 22:36:17;;;;;;;;;12.00;9.50;;;;;;;;5064463;28;8817;-78
2024/01/09 22:38:42;;;;;;;;;10.50;8.50;;;;;;;;5060525;28;8847;-79
2024/01/09 22:41:08;;;;;;;;;7.00;6.00;;;;;;;;5052691;28;8887;-78
2024/01/09 22:43:33;;;;;;;;;9.25;7.25;;;;;;;;5050006;28;8828;-79
2024/01/09 22:45:58;;;;;;;;;10.75;6.50;;;;;;;;5049039;28;8859;-79
2024/01/09 22:48:24;;;;;;;;;10.75;6.50;;;;;;;;5052154;28;9542;-79
2024/01/09 22:50:49;;;;;;;;;7.00;7.00;;;;;;;;5070071;28;9384;-78
2024/01/09 22:53:15;;;;;;;;;5.50;4.75;;;;;;;;5070052;28;8814;-79
2024/01/09 22:55:40;;;;;;;;;7.75;7.25;;;;;;;;5069399;28;8782;-79
2024/01/09 22:58:06;;;;;;;;;12.00;8.00;;;;;;;;5070225;28;8790;-78
2024/01/09 23:00:31;;;;;;;;;5.50;5.00;;;;;;;;5072214;28;8794;-81
2024/01/09 23:03:00;;;;;;;;;10.00;7.75;;;;;;;;5069542;28;8816;-83
2024/01/09 23:05:25;;;;;;;;;7.75;7.25;;;;;;;;5070281;28;8876;-79
2024/01/09 23:07:50;;;;;;;;;9.50;7.75;;;;;;;;5068789;28;12202;-80
2024/01/09 23:10:16;;;;;;;;;7.75;7.25;;;;;;;;5071104;28;9597;-80
2024/01/09 23:12:42;;;;;;;;;9.50;6.50;;;;;;;;5069718;28;8783;-80
2024/01/09 23:15:07;;;;;;;;;5.00;5.00;;;;;;;;5068163;28;8818;-79
2024/01/09 23:17:33;;;;;;;;;8.50;5.25;;;;;;;;5070045;28;8895;-79
2024/01/09 23:19:58;;;;;;;;;10.50;5.00;;;;;;;;5069397;28;8885;-79
2024/01/09 23:22:23;;;;;;;;;7.50;6.50;;;;;;;;5069620;28;8798;-79
2024/01/09 23:24:49;;;;;;;;;7.25;6.75;;;;;;;;5070024;28;8899;-80
2024/01/09 23:27:14;;;;;;;;;7.50;7.25;;;;;;;;5070413;28;9547;-80
2024/01/09 23:29:39;;;;;;;;;8.50;8.50;;;;;;;;5070101;28;8790;-80
2024/01/09 23:32:07;;;;;;;;;10.25;5.50;;;;;;;;5073331;28;9473;-80
2024/01/09 23:34:32;;;;;;;;;9.25;8.00;;;;;;;;5074047;28;9524;-80
2024/01/09 23:36:58;;;;;;;;;7.25;5.50;;;;;;;;5072545;28;11470;-80
2024/01/09 23:39:23;;;;;;;;;7.00;5.00;;;;;;;;5074985;28;8875;-80
2024/01/09 23:41:49;;;;;;;;;11.25;8.50;;;;;;;;5075384;28;8775;-76
2024/01/09 23:44:14;;;;;;;;;6.00;6.00;;;;;;;;5073474;28;8852;-76
2024/01/09 23:46:39;;;;;;;;;9.00;4.75;;;;;;;;5073586;28;8783;-76
2024/01/09 23:49:05;;;;;;;;;13.50;10.00;;;;;;;;5072109;28;8872;-75
